Time;durP1;ratioP1;P1;durP2;ratioP2;P2;SDS_P1;SDS_P2;PMS_P1;PMS_P2;Temp;Humidity;BMP_temperature;BMP_pressure;BME280_temperature;BME280_humidity;BME280_pressure;Samples;Min_cycle;Max_cycle;Signal;HPM_P1;HPM_P2
2023/07/10 00:00:43;;;;;;;12.52;10.50;;;24.60;99.60;;;;;;5033417;28;20083;-56
2023/07/10 00:03:29;;;;;;;13.70;9.77;;;24.60;99.80;;;;;;5033392;28;20030;-53
2023/07/10 00:06:16;;;;;;;14.48;9.80;;;24.50;99.70;;;;;;5033743;28;20457;-56
2023/07/10 00:09:02;;;;;;;14.35;10.88;;;24.50;99.70;;;;;;5037186;28;20017;-54
2023/07/10 00:11:50;;;;;;;14.90;10.18;;;24.50;99.60;;;;;;5043948;28;20033;-56
2023/07/10 00:14:35;;;;;;;15.23;9.45;;;24.40;99.50;;;;;;5033708;28;20030;-57
2023/07/10 00:17:21;;;;;;;21.50;10.98;;;24.30;99.50;;;;;;5034102;28;20489;-55
2023/07/10 00:20:23;;;;;;;16.10;12.43;;;24.30;99.70;;;;;;5033688;28;20029;-52
2023/07/10 00:23:09;;;;;;;19.63;17.60;;;24.40;99.20;;;;;;5034963;28;20037;-52
2023/07/10 00:25:55;;;;;;;20.23;18.13;;;24.30;99.20;;;;;;5034359;28;20404;-56
2023/07/10 00:28:42;;;;;;;24.20;21.48;;;24.50;98.70;;;;;;5031112;28;20418;-54
2023/07/10 00:31:28;;;;;;;25.48;21.92;;;24.50;98.70;;;;;;5034609;28;20022;-55
2023/07/10 00:34:16;;;;;;;22.73;20.52;;;24.60;98.70;;;;;;5037315;28;20041;-53
2023/07/10 00:37:02;;;;;;;21.35;19.15;;;24.70;98.30;;;;;;5033393;28;20049;-56
2023/07/10 00:39:48;;;;;;;19.65;17.52;;;24.70;97.10;;;;;;5032790;28;20033;-52
2023/07/10 00:42:34;;;;;;;18.42;16.25;;;24.60;97.20;;;;;;5033274;28;20099;-55
2023/07/10 00:45:21;;;;;;;19.80;15.38;;;24.50;96.90;;;;;;5032440;28;20033;-55
2023/07/10 00:48:26;;;;;;;18.27;13.60;;;24.50;96.60;;;;;;5040371;28;20081;-53
2023/07/10 00:51:32;;;;;;;16.10;13.77;;;24.40;96.30;;;;;;5037442;28;20482;-56
2023/07/10 00:54:41;;;;;;;14.20;11.40;;;24.30;96.80;;;;;;5032018;28;20029;-53
2023/07/10 00:57:35;;;;;;;14.25;11.75;;;24.30;96.10;;;;;;5032418;28;20044;-52
2023/07/10 01:00:23;;;;;;;14.82;11.55;;;24.30;96.00;;;;;;5035885;28;20033;-52
2023/07/10 01:03:13;;;;;;;13.20;11.80;;;24.20;95.70;;;;;;5034555;28;20479;-55
2023/07/10 01:06:04;;;;;;;18.13;11.20;;;24.10;95.90;;;;;;5032786;28;20048;-52
2023/07/10 01:08:55;;;;;;;11.98;10.43;;;24.10;95.60;;;;;;5033253;28;20022;-53
2023/07/10 01:11:41;;;;;;;14.07;11.80;;;24.20;95.20;;;;;;5032514;28;20030;-56
2023/07/10 01:14:34;;;;;;;14.30;10.35;;;24.20;95.10;;;;;;5031893;28;20038;-57
2023/07/10 01:17:20;;;;;;;14.88;10.40;;;24.30;94.70;;;;;;5031875;28;20426;-56
2023/07/10 01:20:32;;;;;;;16.73;12.40;;;24.30;94.50;;;;;;5032337;28;20037;-57
2023/07/10 01:23:18;;;;;;;12.02;10.80;;;24.40;93.90;;;;;;5031848;28;20462;-56
2023/07/10 01:26:05;;;;;;;12.40;10.18;;;24.40;93.50;;;;;;5031568;28;20029;-55
2023/07/10 01:28:53;;;;;;;13.13;10.55;;;24.50;93.20;;;;;;5032140;28;20049;-53
2023/07/10 01:31:39;;;;;;;12.85;11.55;;;24.50;92.90;;;;;;5035165;28;20513;-53
2023/07/10 01:34:42;;;;;;;14.43;12.55;;;24.50;92.90;;;;;;5043732;28;20490;-55
2023/07/10 01:37:29;;;;;;;13.77;12.30;;;24.30;93.60;;;;;;5041776;28;20405;-54
2023/07/10 01:40:19;;;;;;;12.85;11.55;;;23.80;94.60;;;;;;5041460;28;20042;-55
2023/07/10 01:43:09;;;;;;;13.77;11.35;;;23.50;95.40;;;;;;5036694;28;20410;-52
2023/07/10 01:45:54;;;;;;;12.32;11.02;;;23.50;95.40;;;;;;5036551;28;20036;-55
2023/07/10 01:48:40;;;;;;;13.18;11.90;;;23.60;95.50;;;;;;5035335;28;20463;-56
2023/07/10 01:51:26;;;;;;;14.20;11.00;;;23.70;95.10;;;;;;5036636;28;20025;-53
2023/07/10 01:54:15;;;;;;;11.82;10.73;;;23.80;95.00;;;;;;5034456;28;20057;-55
2023/07/10 01:57:02;;;;;;;17.10;11.50;;;24.00;94.80;;;;;;5035877;28;20065;-54
2023/07/10 01:59:48;;;;;;;12.10;10.90;;;24.20;94.40;;;;;;5035861;28;20108;-55
2023/07/10 02:02:34;;;;;;;12.50;11.30;;;24.20;93.90;;;;;;5035271;28;20105;-54
2023/07/10 02:05:20;;;;;;;13.05;11.43;;;24.30;93.80;;;;;;5035713;28;20163;-56
2023/07/10 02:08:06;;;;;;;13.30;12.00;;;24.30;93.70;;;;;;5035358;28;20028;-55
2023/07/10 02:10:52;;;;;;;11.52;10.27;;;24.20;93.60;;;;;;5020188;28;20382;-53
2023/07/10 02:13:38;;;;;;;12.63;11.32;;;24.20;93.70;;;;;;5035011;28;20030;-54
2023/07/10 02:16:24;;;;;;;13.18;10.90;;;24.20;93.70;;;;;;5035180;28;20494;-53
2023/07/10 02:19:11;;;;;;;11.65;10.25;;;24.20;93.70;;;;;;5035376;28;20033;-53
2023/07/10 02:21:57;;;;;;;11.30;10.27;;;24.30;93.60;;;;;;5038851;28;20033;-51
2023/07/10 02:24:43;;;;;;;12.20;10.90;;;24.50;93.50;;;;;;5040836;28;20022;-54
2023/07/10 02:27:29;;;;;;;14.27;11.10;;;24.50;93.30;;;;;;5038681;28;20036;-56
2023/07/10 02:30:15;;;;;;;12.85;11.52;;;24.50;93.20;;;;;;5039039;28;20263;-53
2023/07/10 02:33:01;;;;;;;15.27;11.43;;;24.50;93.30;;;;;;5036631;28;20471;-54
2023/07/10 02:35:47;;;;;;;13.32;11.38;;;24.40;93.30;;;;;;5036887;28;20057;-52
2023/07/10 02:38:33;;;;;;;12.90;11.60;;;24.30;93.50;;;;;;5019593;28;20109;-53
2023/07/10 02:41:19;;;;;;;11.65;10.57;;;24.20;93.40;;;;;;5035208;28;20036;-50
2023/07/10 02:44:05;;;;;;;12.75;11.45;;;24.10;93.70;;;;;;5034133;28;20448;-52
2023/07/10 02:46:51;;;;;;;12.48;11.18;;;24.10;93.80;;;;;;5033756;28;20425;-50
2023/07/10 02:49:37;;;;;;;13.00;11.70;;;24.10;93.80;;;;;;5035362;28;20079;-51
2023/07/10 02:52:23;;;;;;;11.82;10.73;;;24.10;93.90;;;;;;5034946;28;20029;-54
2023/07/10 02:55:09;;;;;;;12.77;11.50;;;24.10;94.00;;;;;;5034875;28;20033;-54
2023/07/10 02:57:55;;;;;;;11.88;10.68;;;24.20;94.00;;;;;;5034746;28;20049;-53
2023/07/10 03:00:41;;;;;;;11.80;10.57;;;24.20;93.90;;;;;;5035549;28;20081;-50
2023/07/10 03:03:27;;;;;;;11.90;10.70;;;24.20;93.90;;;;;;5044225;28;20061;-54
2023/07/10 03:06:14;;;;;;;12.70;10.50;;;24.20;94.10;;;;;;5038154;28;20052;-55
2023/07/10 03:09:00;;;;;;;14.73;11.70;;;24.20;94.10;;;;;;5034652;28;20026;-53
2023/07/10 03:11:46;;;;;;;11.45;10.40;;;24.20;93.90;;;;;;5034262;28;20031;-52
2023/07/10 03:14:32;;;;;;;10.75;9.57;;;24.20;94.00;;;;;;5034530;28;20125;-51
2023/07/10 03:17:18;;;;;;;11.32;10.25;;;24.20;94.10;;;;;;5033990;28;20040;-51
2023/07/10 03:20:05;;;;;;;11.85;10.75;;;24.20;94.00;;;;;;5034766;28;20022;-53
2023/07/10 03:22:51;;;;;;;12.27;11.07;;;24.30;93.90;;;;;;5033850;28;20040;-55
2023/07/10 03:25:37;;;;;;;12.57;11.27;;;24.20;94.20;;;;;;5034149;28;20022;-53
2023/07/10 03:28:23;;;;;;;13.45;11.90;;;24.20;94.10;;;;;;5033965;28;20076;-54
2023/07/10 03:31:09;;;;;;;12.98;11.40;;;24.10;94.30;;;;;;5033822;28;20550;-52
2023/07/10 03:33:55;;;;;;;12.30;11.10;;;24.00;94.50;;;;;;5033333;28;20021;-57
2023/07/10 03:36:42;;;;;;;13.38;12.07;;;23.80;94.60;;;;;;5033845;28;20187;-55
2023/07/10 03:39:28;;;;;;;15.38;12.88;;;23.40;96.40;;;;;;5033177;28;20082;-57
2023/07/10 03:42:14;;;;;;;15.70;14.18;;;22.90;98.10;;;;;;5033922;28;20573;-51
2023/07/10 03:45:00;;;;;;;15.32;13.75;;;22.20;99.90;;;;;;5032864;28;20029;-54
2023/07/10 03:47:46;;;;;;;15.38;13.77;;;21.80;99.90;;;;;;5033464;28;20060;-55
2023/07/10 03:50:34;;;;;;;16.75;14.05;;;21.80;99.90;;;;;;5033542;28;20037;-54
2023/07/10 03:53:20;;;;;;;16.13;14.30;;;22.30;99.90;;;;;;5033366;28;20498;-52
2023/07/10 03:56:07;;;;;;;14.25;12.43;;;22.40;99.90;;;;;;5032946;28;20034;-54
2023/07/10 03:58:53;;;;;;;13.52;11.82;;;22.60;99.90;;;;;;5033889;28;20456;-54
2023/07/10 04:01:39;;;;;;;14.02;12.63;;;22.90;99.60;;;;;;5033309;28;20039;-54
2023/07/10 04:04:25;;;;;;;13.45;12.13;;;23.10;99.40;;;;;;5033486;28;20028;-52
2023/07/10 04:07:11;;;;;;;12.80;11.55;;;23.20;99.10;;;;;;5033236;28;20124;-51
2023/07/10 04:09:56;;;;;;;12.80;11.50;;;23.40;98.90;;;;;;5017284;28;20037;-55
2023/07/10 04:12:43;;;;;;;12.45;11.25;;;23.60;98.50;;;;;;5032791;28;20347;-52
2023/07/10 04:15:28;;;;;;;14.13;11.82;;;23.70;98.00;;;;;;5032902;28;20029;-54
2023/07/10 04:18:14;;;;;;;15.00;12.18;;;23.90;97.60;;;;;;5032135;28;20052;-54
2023/07/10 04:21:03;;;;;;;17.02;15.40;;;24.00;97.40;;;;;;5033340;28;20036;-54
2023/07/10 04:23:49;;;;;;;14.77;12.80;;;24.00;97.20;;;;;;5033547;28;20502;-55
2023/07/10 04:26:35;;;;;;;13.07;11.77;;;24.10;97.00;;;;;;5036002;28;20402;-55
2023/07/10 04:29:21;;;;;;;15.48;13.88;;;24.00;97.40;;;;;;5035265;28;20048;-57
2023/07/10 04:32:09;;;;;;;13.93;12.63;;;23.80;97.80;;;;;;5037504;28;20029;-55
2023/07/10 04:34:55;;;;;;;13.70;12.35;;;23.70;98.20;;;;;;5034735;28;20324;-52
2023/07/10 04:37:41;;;;;;;16.77;13.45;;;23.60;98.60;;;;;;5033094;28;20030;-56
2023/07/10 04:40:26;;;;;;;18.63;14.63;;;23.00;99.90;;;;;;5035769;28;20030;-53
2023/07/10 04:43:12;;;;;;;15.52;13.40;;;22.80;99.90;;;;;;5033216;28;20075;-55
2023/07/10 04:46:00;;;;;;;14.73;13.10;;;22.70;99.90;;;;;;5031957;28;20021;-57
2023/07/10 04:48:47;;;;;;;14.32;11.82;;;22.90;99.90;;;;;;5032472;28;20359;-55
2023/07/10 04:51:33;;;;;;;15.45;13.85;;;23.10;99.90;;;;;;5032597;28;20030;-57
2023/07/10 04:54:19;;;;;;;18.13;14.38;;;23.30;99.90;;;;;;5033459;28;20423;-57
2023/07/10 04:57:05;;;;;;;16.08;14.55;;;23.10;99.90;;;;;;5032812;28;20486;-53
2023/07/10 04:59:51;;;;;;;16.05;14.30;;;22.90;99.90;;;;;;5033882;28;20038;-54
2023/07/10 05:02:37;;;;;;;15.50;13.45;;;22.90;99.90;;;;;;5035492;28;20401;-56
2023/07/10 05:05:23;;;;;;;18.58;15.13;;;23.00;99.90;;;;;;5033044;28;20108;-56
2023/07/10 05:08:09;;;;;;;17.13;14.27;;;23.10;99.90;;;;;;5030687;28;20600;-56
2023/07/10 05:10:56;;;;;;;16.02;14.45;;;23.10;99.90;;;;;;5033302;28;20441;-56
2023/07/10 05:13:42;;;;;;;16.63;13.88;;;23.10;99.90;;;;;;5033396;28;20026;-56
2023/07/10 05:16:29;;;;;;;15.95;13.85;;;23.20;99.90;;;;;;5036721;28;20441;-57
2023/07/10 05:19:15;;;;;;;13.85;12.55;;;23.30;99.90;;;;;;5041210;28;20034;-54
2023/07/10 05:22:01;;;;;;;13.65;12.18;;;23.50;99.90;;;;;;5041503;28;20072;-57
2023/07/10 05:24:47;;;;;;;14.55;13.05;;;23.70;99.90;;;;;;5034331;28;20036;-53
2023/07/10 05:27:33;;;;;;;15.63;13.77;;;23.90;99.90;;;;;;5035396;28;20029;-57
2023/07/10 05:30:19;;;;;;;15.77;12.77;;;24.10;99.90;;;;;;5034086;28;20029;-57
2023/07/10 05:33:05;;;;;;;13.93;12.45;;;24.20;99.90;;;;;;5045715;28;20037;-52
2023/07/10 05:35:56;;;;;;;13.70;12.38;;;24.30;99.90;;;;;;5044366;28;20033;-55
2023/07/10 05:38:48;;;;;;;17.27;13.73;;;24.30;99.90;;;;;;5037549;28;20056;-55
2023/07/10 05:41:34;;;;;;;14.75;13.23;;;24.40;99.90;;;;;;5034949;28;20029;-52
2023/07/10 05:44:21;;;;;;;14.70;13.20;;;24.40;99.90;;;;;;5032404;28;20109;-55
2023/07/10 05:47:07;;;;;;;16.15;14.48;;;24.50;99.90;;;;;;5031497;28;20029;-54
2023/07/10 05:49:53;;;;;;;17.35;13.35;;;24.40;99.90;;;;;;5031230;28;20132;-53
2023/07/10 05:52:39;;;;;;;14.40;12.90;;;24.40;99.90;;;;;;5031122;28;20033;-54
2023/07/10 05:55:24;;;;;;;15.48;13.93;;;24.30;99.90;;;;;;5032296;28;20022;-55
2023/07/10 05:58:11;;;;;;;15.07;13.68;;;24.30;99.90;;;;;;5031032;28;20489;-52
2023/07/10 06:01:00;;;;;;;16.20;14.60;;;24.20;99.90;;;;;;5031961;28;20029;-51
2023/07/10 06:03:46;;;;;;;20.88;14.98;;;24.10;99.90;;;;;;5032095;28;20089;-56
2023/07/10 06:06:32;;;;;;;16.52;14.98;;;24.00;99.90;;;;;;5032132;28;20390;-55
2023/07/10 06:09:18;;;;;;;18.98;16.20;;;24.00;99.90;;;;;;5032460;28;20079;-56
2023/07/10 06:12:04;;;;;;;17.85;16.10;;;23.90;99.90;;;;;;5031053;28;20510;-53
2023/07/10 06:14:50;;;;;;;17.50;15.68;;;23.80;99.90;;;;;;5032076;28;20034;-53
2023/07/10 06:17:36;;;;;;;16.50;15.00;;;23.90;99.90;;;;;;5031947;28;20087;-56
2023/07/10 06:20:22;;;;;;;16.35;14.85;;;24.00;99.90;;;;;;5019674;28;20038;-53
2023/07/10 06:23:08;;;;;;;17.80;14.95;;;24.20;99.90;;;;;;5035338;28;20524;-54
2023/07/10 06:25:55;;;;;;;15.82;14.25;;;24.30;99.90;;;;;;5035297;28;20398;-52
2023/07/10 06:28:41;;;;;;;15.98;14.20;;;24.50;99.90;;;;;;5038203;28;20041;-52
2023/07/10 06:31:27;;;;;;;15.10;13.55;;;24.60;99.30;;;;;;5037314;28;20087;-52
2023/07/10 06:34:13;;;;;;;15.80;14.10;;;24.80;99.00;;;;;;5034916;28;20030;-55
2023/07/10 06:36:59;;;;;;;15.52;13.77;;;24.80;98.20;;;;;;5035344;28;20041;-55
2023/07/10 06:40:02;;;;;;;15.43;13.88;;;24.70;97.90;;;;;;5035523;28;20452;-55
2023/07/10 06:42:49;;;;;;;16.02;13.52;;;24.80;97.40;;;;;;5035782;28;20035;-55
2023/07/10 06:45:35;;;;;;;15.23;13.63;;;24.80;97.30;;;;;;5035909;28;20022;-57
2023/07/10 06:48:21;;;;;;;14.30;12.80;;;25.00;97.20;;;;;;5035225;28;20030;-56
2023/07/10 06:51:07;;;;;;;13.75;12.30;;;25.20;96.50;;;;;;5034469;28;20072;-57
2023/07/10 06:53:53;;;;;;;14.98;12.88;;;25.30;96.00;;;;;;5039523;28;20297;-55
2023/07/10 06:56:39;;;;;;;15.77;12.25;;;25.40;95.40;;;;;;5046601;28;20029;-55
2023/07/10 06:59:25;;;;;;;15.63;13.15;;;25.50;95.00;;;;;;5036616;28;20080;-52
2023/07/10 07:02:14;;;;;;;15.38;11.40;;;25.50;95.10;;;;;;5041777;28;20038;-56
2023/07/10 07:05:00;;;;;;;14.70;13.13;;;25.50;94.00;;;;;;5041198;28;20038;-56
2023/07/10 07:07:46;;;;;;;13.32;11.77;;;25.40;94.30;;;;;;5036903;28;20454;-54
2023/07/10 07:10:32;;;;;;;13.85;12.35;;;25.50;94.60;;;;;;5034432;28;20034;-52
2023/07/10 07:13:20;;;;;;;14.32;12.07;;;25.70;94.60;;;;;;5034971;28;20104;-54
2023/07/10 07:16:06;;;;;;;15.55;13.82;;;25.80;95.10;;;;;;5033709;28;20495;-52
2023/07/10 07:18:52;;;;;;;15.68;13.20;;;25.70;95.30;;;;;;5034642;28;20065;-52
2023/07/10 07:21:38;;;;;;;12.90;11.65;;;25.80;95.10;;;;;;5034262;28;20483;-52
2023/07/10 07:24:24;;;;;;;13.30;11.73;;;25.70;95.00;;;;;;5034596;28;20025;-52
2023/07/10 07:27:10;;;;;;;13.27;11.98;;;25.80;94.60;;;;;;5034628;28;20038;-53
2023/07/10 07:29:56;;;;;;;17.00;12.70;;;25.90;94.60;;;;;;5035782;28;20037;-55
2023/07/10 07:32:42;;;;;;;13.60;12.23;;;26.00;93.50;;;;;;5038802;28;20085;-54
2023/07/10 07:35:28;;;;;;;16.13;13.50;;;25.80;94.00;;;;;;5036776;28;20030;-53
2023/07/10 07:38:15;;;;;;;14.27;12.75;;;25.80;93.80;;;;;;5034037;28;20032;-57
2023/07/10 07:41:00;;;;;;;13.32;11.95;;;25.80;94.10;;;;;;5033954;28;20025;-54
2023/07/10 07:43:48;;;;;;;15.05;13.23;;;25.90;93.70;;;;;;5033961;28;20567;-56
2023/07/10 07:46:34;;;;;;;13.05;11.48;;;25.60;94.00;;;;;;5034134;28;20044;-56
2023/07/10 07:49:23;;;;;;;12.77;11.40;;;25.80;94.00;;;;;;5033960;28;20021;-55
2023/07/10 07:52:09;;;;;;;15.98;11.50;;;25.80;93.30;;;;;;5033884;28;20029;-57
2023/07/10 07:54:55;;;;;;;15.52;12.20;;;25.90;93.40;;;;;;5032439;28;20025;-55
2023/07/10 07:57:42;;;;;;;13.50;12.10;;;26.00;92.60;;;;;;5033777;28;20037;-52
2023/07/10 08:00:28;;;;;;;18.73;11.82;;;26.20;92.20;;;;;;5034879;28;20363;-53
2023/07/10 08:03:14;;;;;;;13.00;11.63;;;26.10;92.40;;;;;;5032312;28;20045;-51
2023/07/10 08:06:00;;;;;;;14.07;11.25;;;26.10;92.10;;;;;;5033600;28;20025;-56
2023/07/10 08:08:46;;;;;;;17.90;11.57;;;26.30;91.40;;;;;;5032793;28;20057;-56
2023/07/10 08:11:32;;;;;;;11.73;10.55;;;26.30;92.00;;;;;;5033442;28;20051;-56
2023/07/10 08:14:18;;;;;;;15.15;10.93;;;26.60;91.50;;;;;;5033379;28;20048;-54
2023/07/10 08:17:04;;;;;;;12.68;11.38;;;26.60;91.60;;;;;;5032527;28;20037;-57
2023/07/10 08:19:50;;;;;;;12.23;10.93;;;26.80;91.10;;;;;;5033336;28;20034;-54
2023/07/10 08:22:36;;;;;;;11.90;10.75;;;26.90;90.90;;;;;;5035938;28;20536;-54
2023/07/10 08:25:22;;;;;;;13.77;11.48;;;26.90;91.10;;;;;;5037098;28;20033;-57
2023/07/10 08:28:08;;;;;;;14.40;10.73;;;27.10;91.40;;;;;;5040892;28;20073;-55
2023/07/10 08:30:54;;;;;;;13.00;11.70;;;27.20;91.00;;;;;;5044127;28;20394;-56
2023/07/10 08:33:40;;;;;;;13.32;11.02;;;27.00;91.10;;;;;;5039151;28;20038;-56
2023/07/10 08:36:26;;;;;;;13.25;10.88;;;27.10;91.30;;;;;;5034180;28;20061;-56
2023/07/10 08:39:12;;;;;;;13.40;11.52;;;27.20;91.60;;;;;;5032785;28;20041;-54
2023/07/10 08:42:04;;;;;;;13.98;11.27;;;27.40;91.50;;;;;;5032718;28;20116;-56
2023/07/10 08:44:53;;;;;;;12.45;10.52;;;27.30;91.40;;;;;;5033129;28;20147;-56
2023/07/10 08:47:53;;;;;;;13.20;11.43;;;27.30;91.30;;;;;;5031867;28;20017;-54
2023/07/10 08:50:40;;;;;;;13.40;11.18;;;27.20;91.10;;;;;;5033178;28;20109;-55
2023/07/10 08:53:31;;;;;;;11.70;10.05;;;27.40;90.80;;;;;;5031979;28;20078;-57
2023/07/10 08:56:42;;;;;;;12.57;10.32;;;27.40;90.70;;;;;;5033389;28;20112;-53
2023/07/10 08:59:38;;;;;;;11.13;9.93;;;27.20;89.90;;;;;;5033193;28;20028;-54
2023/07/10 09:02:51;;;;;;;12.05;10.50;;;27.30;90.30;;;;;;5035139;28;20021;-56
2023/07/10 09:05:39;;;;;;;12.95;10.52;;;27.20;90.50;;;;;;5036717;28;20036;-56
2023/07/10 09:08:27;;;;;;;13.80;10.80;;;27.30;90.70;;;;;;5034081;28;20025;-52
2023/07/10 09:11:14;;;;;;;13.30;11.23;;;27.40;90.30;;;;;;5040130;28;20104;-52
2023/07/10 09:14:26;;;;;;;14.38;11.60;;;27.20;90.60;;;;;;5034439;28;20402;-53
2023/07/10 09:17:23;;;;;;;13.82;11.93;;;27.10;91.30;;;;;;5033469;28;20104;-54
2023/07/10 09:20:10;;;;;;;14.30;11.38;;;27.10;91.80;;;;;;5033095;28;20021;-56
2023/07/10 09:23:04;;;;;;;12.82;11.27;;;26.90;92.10;;;;;;5032616;28;20036;-53
2023/07/10 09:25:55;;;;;;;11.25;9.98;;;26.90;92.50;;;;;;5032911;28;20033;-56
2023/07/10 09:28:43;;;;;;;13.88;10.00;;;26.90;92.30;;;;;;5033643;28;20030;-54
2023/07/10 09:32:08;;;;;;;13.02;9.70;;;27.00;92.30;;;;;;5033742;28;20029;-54
2023/07/10 09:34:58;;;;;;;12.63;9.20;;;27.20;92.40;;;;;;5039646;28;20060;-55
2023/07/10 09:37:49;;;;;;;10.82;9.18;;;27.30;92.70;;;;;;5040819;28;20033;-56
2023/07/10 09:40:43;;;;;;;12.65;8.40;;;27.30;93.40;;;;;;5036421;28;20057;-55
2023/07/10 09:43:30;;;;;;;10.40;9.15;;;27.10;93.50;;;;;;5035298;28;20524;-53
2023/07/10 09:46:16;;;;;;;13.98;9.55;;;27.10;94.20;;;;;;5038011;28;20026;-56
2023/07/10 09:49:33;;;;;;;11.27;10.00;;;26.90;94.40;;;;;;5045664;28;20045;-56
2023/07/10 09:52:25;;;;;;;12.98;10.43;;;27.00;94.60;;;;;;5032357;28;20022;-50
2023/07/10 09:55:15;;;;;;;10.75;9.68;;;26.90;95.00;;;;;;5034941;28;20201;-52
2023/07/10 09:58:03;;;;;;;14.23;10.00;;;27.00;94.30;;;;;;5036468;28;20128;-53
2023/07/10 10:00:49;;;;;;;12.25;11.05;;;26.90;94.60;;;;;;5036329;28;20038;-53
2023/07/10 10:03:41;;;;;;;14.93;11.68;;;26.90;94.90;;;;;;5036006;28;20041;-55
2023/07/10 10:06:29;;;;;;;13.23;11.93;;;27.10;95.00;;;;;;5035894;28;20034;-52
2023/07/10 10:09:22;;;;;;;13.90;11.30;;;27.00;95.00;;;;;;5034917;28;20052;-52
2023/07/10 10:12:27;;;;;;;11.25;9.98;;;26.70;95.00;;;;;;5035566;28;20491;-53
2023/07/10 10:15:36;;;;;;;11.82;10.10;;;26.80;95.00;;;;;;5035042;28;20042;-53
2023/07/10 10:18:41;;;;;;;12.63;9.65;;;26.90;95.10;;;;;;5033761;28;20033;-55
2023/07/10 10:21:31;;;;;;;10.60;9.50;;;27.00;94.50;;;;;;5035321;28;20068;-56
2023/07/10 10:24:18;;;;;;;15.00;9.77;;;26.70;94.60;;;;;;5036903;28;20037;-55
2023/07/10 10:27:12;;;;;;;14.43;9.80;;;26.80;94.70;;;;;;5034570;28;20025;-54
2023/07/10 10:30:23;;;;;;;11.80;10.10;;;26.80;94.90;;;;;;5036017;28;20104;-55
2023/07/10 10:33:30;;;;;;;12.52;10.25;;;26.80;94.70;;;;;;5039997;28;20025;-56
2023/07/10 10:36:40;;;;;;;12.57;10.05;;;26.70;94.80;;;;;;5045110;28;20346;-53
2023/07/10 10:39:42;;;;;;;12.30;10.57;;;26.70;94.90;;;;;;5036562;28;20494;-54
2023/07/10 10:43:06;;;;;;;10.75;9.65;;;26.50;95.10;;;;;;5037053;28;20470;-55
2023/07/10 10:46:16;;;;;;;12.55;10.15;;;26.70;95.00;;;;;;5035662;28;20026;-55
2023/07/10 10:49:20;;;;;;;12.80;10.73;;;26.90;94.60;;;;;;5040175;28;20026;-54
2023/07/10 10:52:40;;;;;;;11.30;10.18;;;27.00;94.50;;;;;;5044812;28;20060;-55
2023/07/10 10:55:36;;;;;;;12.15;10.75;;;27.10;93.90;;;;;;5038253;28;20036;-54
2023/07/10 10:58:53;;;;;;;13.90;11.57;;;27.10;94.00;;;;;;5034132;28;20530;-55
2023/07/10 11:02:08;;;;;;;12.77;11.55;;;27.00;93.90;;;;;;5034651;28;20025;-54
2023/07/10 11:05:17;;;;;;;16.10;13.10;;;26.80;94.50;;;;;;5040892;28;20060;-54
2023/07/10 11:08:12;;;;;;;14.77;13.32;;;26.60;95.30;;;;;;5036192;28;20405;-55
2023/07/10 11:11:02;;;;;;;14.88;13.05;;;26.10;96.10;;;;;;5035056;28;20089;-56
2023/07/10 11:13:49;;;;;;;15.38;13.85;;;26.20;96.00;;;;;;5034582;28;20065;-55
2023/07/10 11:16:35;;;;;;;16.52;14.77;;;26.10;96.10;;;;;;5034282;28;20040;-51
2023/07/10 11:19:27;;;;;;;16.10;14.60;;;25.80;96.60;;;;;;5034584;28;20094;-51
2023/07/10 11:22:28;;;;;;;18.75;16.75;;;25.90;97.00;;;;;;5034464;28;20033;-54
2023/07/10 11:25:35;;;;;;;18.42;15.85;;;26.10;96.70;;;;;;5034668;28;20021;-57
2023/07/10 11:28:26;;;;;;;17.92;16.17;;;26.10;96.60;;;;;;5033166;28;20044;-54
2023/07/10 11:31:31;;;;;;;18.75;15.40;;;25.90;96.60;;;;;;5034174;28;20077;-53
2023/07/10 11:34:19;;;;;;;19.80;15.63;;;25.80;96.80;;;;;;5034245;28;20040;-55
2023/07/10 11:37:48;;;;;;;17.70;15.98;;;25.80;97.10;;;;;;5034055;28;20032;-56
2023/07/10 11:40:38;;;;;;;16.60;14.25;;;25.70;97.20;;;;;;5031010;28;20040;-57
2023/07/10 11:43:27;;;;;;;17.88;16.10;;;25.90;97.00;;;;;;5034552;28;20021;-57
2023/07/10 11:46:26;;;;;;;21.27;16.60;;;25.90;96.70;;;;;;5033137;28;20116;-58
2023/07/10 11:49:17;;;;;;;18.27;16.45;;;25.80;97.10;;;;;;5033964;28;20018;-54
2023/07/10 11:52:15;;;;;;;18.30;16.40;;;25.60;97.40;;;;;;5033923;28;20025;-57
2023/07/10 11:55:07;;;;;;;20.83;18.85;;;25.30;97.70;;;;;;5033940;28;20044;-57
2023/07/10 11:58:25;;;;;;;19.02;17.17;;;25.30;97.90;;;;;;5032738;28;20402;-56
2023/07/10 12:01:21;;;;;;;17.15;15.38;;;25.20;98.00;;;;;;5033476;28;20497;-58
2023/07/10 12:04:15;;;;;;;17.45;15.68;;;25.10;98.40;;;;;;5033763;28;20017;-54
2023/07/10 12:07:01;;;;;;;15.93;14.27;;;25.10;98.20;;;;;;5033494;28;20033;-56
2023/07/10 12:09:58;;;;;;;15.55;14.00;;;25.30;97.90;;;;;;5033854;28;20029;-55
2023/07/10 12:12:44;;;;;;;14.80;13.30;;;25.40;97.80;;;;;;5033678;28;20022;-55
2023/07/10 12:15:41;;;;;;;16.13;12.55;;;25.30;97.80;;;;;;5033569;28;20040;-51
2023/07/10 12:18:33;;;;;;;13.35;11.95;;;25.10;98.10;;;;;;5032988;28;20434;-57
2023/07/10 12:21:23;;;;;;;12.98;11.70;;;25.00;98.50;;;;;;5031126;28;20379;-56
2023/07/10 12:24:14;;;;;;;14.35;12.43;;;24.90;98.30;;;;;;5035676;28;20043;-55
2023/07/10 12:27:01;;;;;;;12.43;10.77;;;24.80;98.30;;;;;;5038364;28;20049;-54
2023/07/10 12:29:49;;;;;;;14.75;12.20;;;24.60;99.00;;;;;;5039267;28;20030;-55
2023/07/10 12:32:35;;;;;;;13.05;11.57;;;24.80;98.60;;;;;;5043583;28;20053;-58
2023/07/10 12:35:34;;;;;;;13.65;10.90;;;24.80;98.60;;;;;;5041364;28;20032;-55
2023/07/10 12:38:20;;;;;;;12.23;9.88;;;24.70;98.50;;;;;;5033610;28;20034;-55
2023/07/10 12:41:07;;;;;;;11.38;10.15;;;24.60;98.70;;;;;;5031993;28;20029;-53
2023/07/10 12:43:57;;;;;;;11.90;9.15;;;24.50;98.70;;;;;;5033070;28;20037;-54
2023/07/10 12:46:43;;;;;;;12.07;10.50;;;24.50;98.80;;;;;;5033295;28;20029;-56
2023/07/10 12:49:31;;;;;;;12.60;9.60;;;24.50;98.80;;;;;;5033142;28;20104;-56
2023/07/10 12:52:18;;;;;;;10.65;9.02;;;24.60;98.70;;;;;;5033447;28;20087;-56
2023/07/10 12:55:14;;;;;;;12.40;9.55;;;24.70;98.90;;;;;;5033439;28;20410;-52
2023/07/10 12:58:03;;;;;;;11.55;10.40;;;24.70;98.50;;;;;;5033185;28;20520;-53
2023/07/10 13:00:57;;;;;;;10.80;9.70;;;24.60;98.70;;;;;;5034603;28;20498;-55
2023/07/10 13:03:43;;;;;;;;;;;24.50;98.40;;;;;;5037127;28;20036;-56
2023/07/10 13:06:31;;;;;;;9.82;8.88;;;24.50;98.30;;;;;;5040735;28;19947;-56
2023/07/10 13:09:21;;;;;;;12.80;8.60;;;24.50;98.30;;;;;;5040254;28;20025;-55
2023/07/10 13:12:26;;;;;;;11.55;8.43;;;24.60;98.00;;;;;;5033026;28;20121;-57
2023/07/10 13:15:12;;;;;;;11.25;9.20;;;24.60;97.80;;;;;;5032557;28;20053;-52
2023/07/10 13:18:00;;;;;;;9.95;8.93;;;24.60;97.80;;;;;;5033782;28;20029;-53
2023/07/10 13:20:46;;;;;;;9.35;8.45;;;24.90;97.80;;;;;;5033374;28;20510;-53
2023/07/10 13:23:32;;;;;;;9.13;8.32;;;25.30;97.00;;;;;;5032481;28;20065;-54
2023/07/10 13:26:23;;;;;;;9.05;7.53;;;25.30;96.30;;;;;;5032907;28;20097;-53
2023/07/10 13:29:13;;;;;;;8.55;7.60;;;25.00;96.40;;;;;;5034198;28;20048;-53
2023/07/10 13:31:59;;;;;;;9.05;7.65;;;25.00;96.60;;;;;;5038878;28;20506;-55
2023/07/10 13:34:45;;;;;;;9.05;7.47;;;25.00;96.60;;;;;;5042613;28;20052;-54
2023/07/10 13:37:31;;;;;;;7.60;6.90;;;25.40;96.30;;;;;;5039608;28;20096;-55
2023/07/10 13:40:23;;;;;;;8.23;6.75;;;25.90;95.40;;;;;;5038372;28;20448;-53
2023/07/10 13:43:16;;;;;;;7.50;6.70;;;26.30;94.50;;;;;;5036275;28;20060;-56
2023/07/10 13:46:17;;;;;;;8.05;7.25;;;26.60;94.00;;;;;;5036539;28;20021;-55
2023/07/10 13:49:09;;;;;;;8.85;6.68;;;26.70;93.40;;;;;;5037132;28;20025;-57
2023/07/10 13:51:55;;;;;;;8.80;6.63;;;26.80;93.10;;;;;;5036751;28;20026;-53
2023/07/10 13:54:42;;;;;;;7.72;6.38;;;26.70;93.10;;;;;;5036059;28;20411;-52
2023/07/10 13:57:30;;;;;;;8.20;6.47;;;26.80;92.90;;;;;;5036768;28;20032;-56
2023/07/10 14:00:16;;;;;;;7.82;7.00;;;27.00;92.40;;;;;;5035525;28;20060;-56
2023/07/10 14:03:02;;;;;;;8.63;6.60;;;27.20;92.30;;;;;;5036366;28;20033;-54
2023/07/10 14:05:50;;;;;;;7.88;6.88;;;27.00;92.00;;;;;;5036444;28;20101;-53
2023/07/10 14:08:36;;;;;;;7.75;6.32;;;27.10;91.70;;;;;;5035472;28;20037;-51
2023/07/10 14:11:23;;;;;;;7.13;6.43;;;27.10;91.70;;;;;;5036729;28;20026;-54
2023/07/10 14:14:16;;;;;;;10.00;6.60;;;27.30;91.70;;;;;;5036337;28;20032;-56
2023/07/10 14:17:03;;;;;;;8.63;6.80;;;27.40;91.40;;;;;;5035073;28;20022;-53
2023/07/10 14:19:50;;;;;;;7.47;6.30;;;27.70;91.10;;;;;;5035532;28;20494;-56
2023/07/10 14:22:36;;;;;;;8.10;6.30;;;27.90;90.70;;;;;;5036088;28;20025;-56
2023/07/10 14:25:22;;;;;;;6.85;6.10;;;28.00;90.60;;;;;;5035155;28;20029;-52